createdAt,value
2018-04-30T00:00:06.509Z,12.40
2018-04-30T00:02:35.341Z,13.53
2018-04-30T00:05:04.534Z,13.73
2018-04-30T00:07:34.149Z,12.00
2018-04-30T00:10:03.020Z,12.40
2018-04-30T00:12:31.861Z,13.50
2018-04-30T00:15:00.727Z,20.13
2018-04-30T00:17:29.575Z,13.03
2018-04-30T00:19:58.435Z,13.67
2018-04-30T00:22:27.257Z,16.27
2018-04-30T00:24:56.124Z,14.73
2018-04-30T00:27:25.744Z,14.67
2018-04-30T00:29:55.360Z,14.10
2018-04-30T00:32:24.208Z,13.03
2018-04-30T00:34:53.343Z,16.40
2018-04-30T00:37:22.412Z,15.57
2018-04-30T00:39:51.253Z,17.13
2018-04-30T00:42:20.112Z,16.37
2018-04-30T00:44:49.741Z,16.43
2018-04-30T00:47:18.626Z,15.73
2018-04-30T00:49:47.461Z,16.63
2018-04-30T00:52:16.322Z,15.70
2018-04-30T00:54:57.117Z,16.13
2018-04-30T00:57:25.974Z,16.73
2018-04-30T00:59:54.861Z,17.87
2018-04-30T01:02:23.726Z,17.80
2018-04-30T01:04:52.601Z,21.30
2018-04-30T01:07:22.236Z,17.83
2018-04-30T01:09:51.082Z,17.80
2018-04-30T01:12:19.934Z,18.17
2018-04-30T01:14:48.776Z,17.77
2018-04-30T01:17:17.644Z,17.57
2018-04-30T01:19:47.185Z,19.10
2018-04-30T01:22:16.032Z,20.33
2018-04-30T01:24:44.894Z,19.13
2018-04-30T01:27:13.787Z,19.50
2018-04-30T01:29:43.389Z,19.33
2018-04-30T01:32:13.013Z,21.70
2018-04-30T01:34:41.905Z,19.40
2018-04-30T01:37:10.798Z,21.60
2018-04-30T01:39:39.689Z,19.73
2018-04-30T01:42:08.581Z,19.20
2018-04-30T01:44:37.446Z,20.30
2018-04-30T01:47:06.733Z,21.17
2018-04-30T01:49:36.376Z,20.17
2018-04-30T01:52:05.231Z,23.50
2018-04-30T01:54:34.844Z,22.73
2018-04-30T01:57:04.481Z,23.57
2018-04-30T01:59:33.336Z,23.47
2018-04-30T02:02:02.965Z,23.40
2018-04-30T02:04:32.588Z,27.10
2018-04-30T02:07:01.893Z,24.57
2018-04-30T02:09:30.749Z,23.60
2018-04-30T02:11:59.712Z,23.00
2018-04-30T02:14:29.441Z,22.93
2018-04-30T02:16:59.060Z,26.30
2018-04-30T02:19:27.902Z,29.50
2018-04-30T02:21:56.758Z,30.73
2018-04-30T02:24:26.380Z,33.63
2018-04-30T02:26:55.256Z,35.57
2018-04-30T02:29:24.098Z,33.37
2018-04-30T02:31:53.036Z,31.30
2018-04-30T02:34:21.892Z,31.37
2018-04-30T02:36:51.538Z,32.07
2018-04-30T02:39:20.377Z,31.53
2018-04-30T02:41:50.021Z,35.67
2018-04-30T02:44:18.897Z,35.20
2018-04-30T02:46:48.505Z,37.67
2018-04-30T02:49:17.344Z,37.50
2018-04-30T02:51:46.858Z,36.80
2018-04-30T02:54:15.690Z,37.87
2018-04-30T02:56:45.302Z,38.17
2018-04-30T02:59:14.918Z,41.67
2018-04-30T03:01:43.792Z,48.60
2018-04-30T03:04:13.402Z,45.07
2018-04-30T03:06:42.492Z,47.13
2018-04-30T03:09:12.108Z,47.63
2018-04-30T03:11:40.955Z,51.23
2018-04-30T03:14:09.900Z,53.20
2018-04-30T03:16:38.765Z,50.13
2018-04-30T03:19:07.620Z,54.90
2018-04-30T03:21:36.462Z,51.90
2018-04-30T03:24:05.328Z,53.60
2018-04-30T03:26:34.167Z,54.57
2018-04-30T03:29:03.782Z,53.87
2018-04-30T03:31:32.625Z,60.80
2018-04-30T03:34:01.484Z,58.03
2018-04-30T03:36:30.368Z,59.73
2018-04-30T03:38:59.228Z,54.90
2018-04-30T03:41:28.098Z,60.87
2018-04-30T03:43:57.701Z,60.00
2018-04-30T03:46:27.316Z,57.70
2018-04-30T03:48:56.303Z,59.83
2018-04-30T03:51:25.922Z,57.53
2018-04-30T03:53:55.532Z,59.47
2018-04-30T03:56:25.149Z,62.23
2018-04-30T03:58:54.053Z,58.63
2018-04-30T04:01:34.888Z,62.13
2018-04-30T04:04:16.460Z,59.77
2018-04-30T04:06:52.238Z,64.50
2018-04-30T04:09:21.851Z,61.63
2018-04-30T04:11:51.019Z,60.77
2018-04-30T04:14:19.862Z,60.83
2018-04-30T04:16:48.860Z,60.60
2018-04-30T04:19:18.483Z,62.90
2018-04-30T04:21:48.371Z,58.60
2018-04-30T04:24:17.208Z,62.37
2018-04-30T04:26:46.991Z,64.03
2018-04-30T04:29:16.281Z,62.97
2018-04-30T04:31:45.893Z,59.63
2018-04-30T04:34:14.736Z,59.43
2018-04-30T04:36:43.602Z,63.83
2018-04-30T04:39:12.449Z,63.40
2018-04-30T04:41:41.334Z,63.53
2018-04-30T04:44:10.933Z,65.57
2018-04-30T04:46:40.545Z,57.30
2018-04-30T04:49:10.162Z,64.80
2018-04-30T04:51:39.388Z,58.80
2018-04-30T04:54:08.240Z,66.03
2018-04-30T04:56:37.854Z,60.47
2018-04-30T04:59:06.932Z,49.77
2018-04-30T05:01:36.549Z,52.40
2018-04-30T05:04:06.477Z,54.87
2018-04-30T05:06:35.327Z,53.13
2018-04-30T05:09:04.289Z,51.50
2018-04-30T05:11:33.124Z,45.20
2018-04-30T05:14:02.752Z,39.60
2018-04-30T05:16:31.628Z,33.20
2018-04-30T05:19:01.277Z,25.93
2018-04-30T05:21:30.130Z,24.83
2018-04-30T05:23:58.972Z,15.70
2018-04-30T05:26:27.810Z,12.20
2018-04-30T05:28:56.644Z,9.07
2018-04-30T05:31:25.486Z,8.33
2018-04-30T05:33:54.377Z,8.70
2018-04-30T05:36:23.936Z,6.00
2018-04-30T05:38:54.285Z,4.27
2018-04-30T05:41:23.865Z,3.67
2018-04-30T05:43:52.701Z,4.37
2018-04-30T05:46:21.543Z,4.50
2018-04-30T05:48:50.378Z,3.87
2018-04-30T05:51:19.229Z,3.80
2018-04-30T05:53:48.057Z,4.17
2018-04-30T05:56:16.878Z,3.13
2018-04-30T05:58:45.738Z,2.20
2018-04-30T06:01:14.577Z,2.10
2018-04-30T06:03:43.436Z,1.60
2018-04-30T06:06:12.268Z,2.03
2018-04-30T06:08:41.964Z,1.30
2018-04-30T06:11:11.601Z,1.63
2018-04-30T06:13:41.241Z,4.20
2018-04-30T06:16:10.070Z,3.13
2018-04-30T06:18:39.801Z,5.17
2018-04-30T06:21:09.444Z,1.73
2018-04-30T06:26:14.300Z,1.27
2018-04-30T06:28:43.153Z,1.90
2018-04-30T06:31:12.738Z,0.90
2018-04-30T06:33:41.591Z,1.30
2018-04-30T06:36:10.423Z,0.90
2018-04-30T06:38:39.252Z,1.83
2018-04-30T06:41:08.100Z,1.00
2018-04-30T06:43:36.932Z,1.57
2018-04-30T06:46:05.774Z,1.87
2018-04-30T06:48:34.671Z,1.10
2018-04-30T06:51:03.505Z,2.40
2018-04-30T06:53:32.513Z,1.17
2018-04-30T06:56:01.333Z,1.63
2018-04-30T06:58:33.482Z,1.60
2018-04-30T07:01:02.353Z,1.30
2018-04-30T07:03:31.758Z,6.63
2018-04-30T07:06:00.589Z,3.33
2018-04-30T07:08:29.447Z,4.67
2018-04-30T07:10:58.302Z,2.07
2018-04-30T07:13:27.155Z,2.07
2018-04-30T07:15:56.800Z,1.27
2018-04-30T07:18:25.626Z,1.70
2018-04-30T07:20:55.222Z,1.50
2018-04-30T07:23:24.831Z,2.40
2018-04-30T07:25:54.459Z,1.63
2018-04-30T07:28:23.354Z,1.17
2018-04-30T07:30:52.208Z,1.27
2018-04-30T07:33:21.690Z,1.20
2018-04-30T07:35:50.556Z,1.10
2018-04-30T07:38:19.376Z,3.00
2018-04-30T07:40:49.014Z,1.97
2018-04-30T07:43:17.849Z,1.47
2018-04-30T07:45:47.021Z,1.37
2018-04-30T07:48:15.853Z,1.40
2018-04-30T07:50:44.697Z,1.40
2018-04-30T07:53:14.171Z,1.40
2018-04-30T07:55:43.791Z,6.10
2018-04-30T07:58:13.385Z,0.90
2018-04-30T08:00:42.993Z,1.40
2018-04-30T08:03:12.598Z,1.30
2018-04-30T08:05:42.265Z,1.30
2018-04-30T08:08:11.101Z,1.27
2018-04-30T08:10:40.603Z,1.77
2018-04-30T08:13:10.246Z,1.20
2018-04-30T08:15:39.109Z,2.63
2018-04-30T08:18:08.653Z,1.30
2018-04-30T08:20:37.502Z,3.85
2018-04-30T08:23:06.524Z,0.93
2018-04-30T08:25:35.355Z,1.87
2018-04-30T08:28:04.199Z,6.77
2018-04-30T08:30:33.014Z,5.63
2018-04-30T08:33:01.876Z,11.97
2018-04-30T08:35:30.716Z,1.80
2018-04-30T08:37:59.565Z,1.83
2018-04-30T08:40:28.405Z,2.23
2018-04-30T08:42:57.243Z,2.10
2018-04-30T08:45:26.075Z,1.00
2018-04-30T08:47:54.934Z,1.50
2018-04-30T08:50:23.762Z,1.70
2018-04-30T08:52:52.645Z,1.17
2018-04-30T08:55:21.485Z,2.70
2018-04-30T08:57:50.338Z,1.87
2018-04-30T09:00:20.081Z,1.50
2018-04-30T09:02:48.811Z,2.77
2018-04-30T09:05:17.675Z,3.57
2018-04-30T09:07:46.530Z,2.63
2018-04-30T09:10:15.402Z,3.63
2018-04-30T09:12:44.284Z,1.80
2018-04-30T09:15:13.105Z,1.73
2018-04-30T09:17:42.185Z,2.17
2018-04-30T09:20:11.794Z,2.23
2018-04-30T09:22:40.630Z,2.30
2018-04-30T09:25:10.162Z,3.37
2018-04-30T09:27:39.012Z,1.83
2018-04-30T09:30:08.634Z,1.73
2018-04-30T09:32:37.924Z,3.53
2018-04-30T09:35:07.770Z,3.23
2018-04-30T09:37:36.620Z,1.60
2018-04-30T09:40:05.698Z,4.30
2018-04-30T09:42:35.328Z,3.67
2018-04-30T09:45:04.941Z,3.63
2018-04-30T09:47:34.550Z,2.37
2018-04-30T09:50:04.158Z,2.07
2018-04-30T09:52:33.768Z,1.63
2018-04-30T09:55:02.879Z,1.47
2018-04-30T09:57:31.705Z,3.17
2018-04-30T10:00:01.182Z,1.93
2018-04-30T10:02:30.058Z,1.47
2018-04-30T10:04:59.025Z,1.30
2018-04-30T10:07:28.532Z,2.50
2018-04-30T10:09:58.136Z,4.23
2018-04-30T10:12:27.010Z,1.43
2018-04-30T10:14:55.819Z,1.20
2018-04-30T10:17:25.440Z,2.63
2018-04-30T10:19:55.046Z,9.40
2018-04-30T10:22:24.657Z,2.37
2018-04-30T10:24:54.516Z,1.23
2018-04-30T10:27:24.125Z,2.03
2018-04-30T10:29:53.609Z,1.20
2018-04-30T10:32:23.929Z,1.10
2018-04-30T10:34:52.736Z,1.80
2018-04-30T10:37:21.867Z,1.73
2018-04-30T10:39:50.705Z,1.80
2018-04-30T10:42:19.539Z,1.37
2018-04-30T10:44:48.405Z,1.23
2018-04-30T10:47:18.084Z,1.10
2018-04-30T10:49:47.078Z,1.33
2018-04-30T10:52:15.931Z,1.30
2018-04-30T10:54:44.833Z,1.40
2018-04-30T10:57:13.997Z,1.77
2018-04-30T10:59:43.659Z,1.30
2018-04-30T11:02:14.036Z,1.57
2018-04-30T11:04:43.680Z,5.33
2018-04-30T11:07:12.501Z,2.27
2018-04-30T11:09:41.371Z,2.17
2018-04-30T11:12:10.243Z,4.83
2018-04-30T11:14:40.616Z,4.70
2018-04-30T11:17:10.094Z,3.17
2018-04-30T11:19:38.967Z,2.63
2018-04-30T11:22:07.796Z,1.83
2018-04-30T11:24:38.051Z,2.50
2018-04-30T11:27:07.668Z,3.57
2018-04-30T11:29:36.565Z,1.63
2018-04-30T11:32:08.027Z,1.63
2018-04-30T11:34:36.873Z,3.00
2018-04-30T11:37:05.709Z,1.83
2018-04-30T11:39:34.537Z,2.90
2018-04-30T11:42:04.812Z,4.07
2018-04-30T11:44:34.423Z,2.07
2018-04-30T11:47:03.361Z,3.73
2018-04-30T11:49:32.900Z,1.33
2018-04-30T11:52:02.073Z,3.10
2018-04-30T11:54:31.766Z,5.67
2018-04-30T11:57:00.615Z,2.07
2018-04-30T11:59:29.470Z,5.20
2018-04-30T12:01:58.299Z,1.50
2018-04-30T12:04:27.716Z,1.70
2018-04-30T12:06:57.322Z,1.53
2018-04-30T12:09:26.593Z,2.33
2018-04-30T12:11:55.441Z,2.07
2018-04-30T12:14:24.921Z,1.70
2018-04-30T12:16:54.413Z,1.23
2018-04-30T12:19:23.245Z,1.20
2018-04-30T12:21:52.115Z,2.60
2018-04-30T12:24:21.718Z,1.33
2018-04-30T12:26:51.007Z,1.63
2018-04-30T12:29:20.491Z,3.10
2018-04-30T12:31:49.327Z,1.67
2018-04-30T12:34:18.180Z,2.43
2018-04-30T12:36:47.013Z,3.17
2018-04-30T12:39:15.847Z,2.70
2018-04-30T12:41:45.466Z,1.57
2018-04-30T12:44:15.062Z,1.00
2018-04-30T12:46:43.883Z,4.30
2018-04-30T12:49:12.744Z,1.37
2018-04-30T12:51:42.389Z,4.83
2018-04-30T12:54:11.226Z,1.50
2018-04-30T12:56:41.000Z,1.90
2018-04-30T12:59:09.858Z,1.20
2018-04-30T13:01:39.449Z,1.10
2018-04-30T13:04:09.060Z,3.33
2018-04-30T13:06:38.651Z,3.97
2018-04-30T13:09:10.345Z,8.83
2018-04-30T13:11:39.092Z,1.13
2018-04-30T13:14:08.730Z,1.60
2018-04-30T13:16:37.592Z,1.30
2018-04-30T13:19:06.428Z,1.70
2018-04-30T13:21:35.905Z,0.93
2018-04-30T13:24:05.536Z,1.20
2018-04-30T13:26:34.382Z,4.80
2018-04-30T13:29:03.245Z,6.33
2018-04-30T13:31:32.733Z,3.93
2018-04-30T13:34:01.584Z,2.80
2018-04-30T13:36:31.202Z,2.60
2018-04-30T13:39:00.825Z,1.00
2018-04-30T13:41:29.672Z,4.67
2018-04-30T13:43:59.928Z,2.30
2018-04-30T13:46:29.531Z,1.73
2018-04-30T13:48:59.139Z,2.60
2018-04-30T13:51:28.770Z,1.00
2018-04-30T13:53:58.268Z,1.30
2018-04-30T13:56:28.493Z,6.07
2018-04-30T13:58:57.325Z,2.10
2018-04-30T14:01:26.151Z,7.00
2018-04-30T14:03:55.057Z,2.30
2018-04-30T14:06:23.935Z,1.57
2018-04-30T14:08:52.785Z,0.93
2018-04-30T14:11:21.941Z,2.80
2018-04-30T14:13:50.779Z,3.80
2018-04-30T14:16:19.637Z,2.70
2018-04-30T14:18:48.462Z,2.20
2018-04-30T14:21:18.097Z,3.70
2018-04-30T14:23:49.794Z,3.80
2018-04-30T14:26:18.691Z,1.07
2018-04-30T14:28:47.511Z,2.37
2018-04-30T14:31:16.396Z,0.87
2018-04-30T14:33:45.237Z,1.40
2018-04-30T14:36:14.088Z,4.73
2018-04-30T14:38:43.068Z,6.37
2018-04-30T14:41:12.670Z,1.10
2018-04-30T14:43:41.531Z,1.40
2018-04-30T14:46:10.361Z,1.47
2018-04-30T14:48:39.212Z,1.10
2018-04-30T14:51:08.902Z,4.23
2018-04-30T14:53:37.729Z,1.63
2018-04-30T14:56:08.197Z,1.40
2018-04-30T14:58:37.051Z,0.80
2018-04-30T15:01:05.923Z,1.73
2018-04-30T15:03:35.541Z,2.20
2018-04-30T15:06:05.158Z,2.20
2018-04-30T15:08:34.786Z,1.50
2018-04-30T15:11:03.660Z,7.13
2018-04-30T15:13:32.585Z,1.33
2018-04-30T15:16:01.349Z,3.63
2018-04-30T15:18:30.814Z,3.00
2018-04-30T15:21:00.458Z,2.60
2018-04-30T15:23:30.241Z,0.70
2018-04-30T15:25:59.411Z,5.80
2018-04-30T15:28:28.987Z,2.20
2018-04-30T15:30:58.599Z,0.80
2018-04-30T15:33:28.230Z,2.33
2018-04-30T15:35:57.877Z,3.07
2018-04-30T15:38:26.672Z,0.90
2018-04-30T15:40:55.556Z,2.07
2018-04-30T15:43:24.437Z,2.87
2018-04-30T15:45:53.287Z,2.50
2018-04-30T15:48:22.149Z,2.00
2018-04-30T15:50:51.751Z,0.80
2018-04-30T15:53:21.377Z,0.80
2018-04-30T15:55:50.251Z,5.23
2018-04-30T15:58:20.602Z,4.00
2018-04-30T16:00:50.191Z,4.57
2018-04-30T16:03:19.701Z,2.37
2018-04-30T16:05:49.901Z,1.73
2018-04-30T16:08:18.762Z,1.43
2018-04-30T16:10:48.256Z,1.43
2018-04-30T16:13:17.098Z,0.90
2018-04-30T16:15:46.778Z,1.23
2018-04-30T16:18:15.580Z,2.10
2018-04-30T16:20:44.438Z,3.93
2018-04-30T16:23:13.267Z,0.63
2018-04-30T16:25:42.885Z,0.70
2018-04-30T16:28:11.725Z,0.90
2018-04-30T16:30:41.373Z,1.73
2018-04-30T16:33:10.468Z,0.87
2018-04-30T16:35:39.662Z,1.43
2018-04-30T16:38:09.183Z,0.70
2018-04-30T16:40:38.013Z,0.70
2018-04-30T16:43:07.633Z,1.60
2018-04-30T16:45:36.464Z,0.70
2018-04-30T16:48:05.298Z,0.97
2018-04-30T16:50:34.274Z,2.17
2018-04-30T16:53:03.737Z,1.30
2018-04-30T16:55:33.090Z,1.97
2018-04-30T16:58:01.981Z,2.37
2018-04-30T17:00:30.812Z,2.73
2018-04-30T17:02:59.658Z,5.00
2018-04-30T17:05:28.496Z,1.37
2018-04-30T17:07:57.305Z,1.57
2018-04-30T17:10:26.176Z,2.60
2018-04-30T17:12:55.014Z,4.67
2018-04-30T17:15:23.927Z,1.30
2018-04-30T17:17:53.246Z,1.13
2018-04-30T17:20:22.091Z,0.90
2018-04-30T17:22:52.445Z,1.40
2018-04-30T17:25:22.088Z,1.10
2018-04-30T17:27:51.866Z,1.47
2018-04-30T17:30:20.766Z,1.70
2018-04-30T17:32:50.333Z,2.80
2018-04-30T17:35:19.174Z,0.83
2018-04-30T17:37:48.721Z,1.07
2018-04-30T17:40:17.537Z,2.43
2018-04-30T17:42:46.402Z,1.13
2018-04-30T17:45:15.247Z,1.23
2018-04-30T17:47:44.672Z,1.20
2018-04-30T17:50:14.574Z,3.07
2018-04-30T17:52:44.076Z,4.70
2018-04-30T17:55:12.921Z,3.17
2018-04-30T17:57:41.784Z,4.30
2018-04-30T18:00:10.619Z,1.57
2018-04-30T18:02:39.477Z,6.17
2018-04-30T18:05:08.349Z,1.53
2018-04-30T18:07:37.165Z,2.03
2018-04-30T18:10:06.333Z,1.20
2018-04-30T18:12:35.853Z,3.40
2018-04-30T18:15:05.426Z,1.10
2018-04-30T18:17:35.035Z,6.00
2018-04-30T18:20:04.654Z,1.50
2018-04-30T18:22:34.129Z,3.70
2018-04-30T18:25:04.299Z,0.90
2018-04-30T18:27:33.345Z,1.40
2018-04-30T18:30:02.223Z,1.10
2018-04-30T18:32:31.086Z,1.47
2018-04-30T18:34:59.924Z,1.77
2018-04-30T18:37:29.206Z,0.87
2018-04-30T18:39:58.726Z,1.53
2018-04-30T18:42:29.201Z,1.90
2018-04-30T18:44:58.097Z,1.87
2018-04-30T18:47:26.941Z,1.30
2018-04-30T18:49:56.461Z,1.20
2018-04-30T18:52:26.439Z,1.67
2018-04-30T18:54:55.239Z,1.47
2018-04-30T18:57:24.876Z,2.93
2018-04-30T18:59:53.735Z,1.33
2018-04-30T19:02:23.378Z,1.00
2018-04-30T19:04:52.237Z,1.73
2018-04-30T19:07:21.108Z,1.73
2018-04-30T19:09:49.925Z,1.67
2018-04-30T19:12:20.112Z,1.60
2018-04-30T19:14:49.766Z,1.20
2018-04-30T19:17:19.398Z,2.47
2018-04-30T19:19:48.243Z,1.67
2018-04-30T19:22:17.119Z,1.43
2018-04-30T19:24:45.949Z,1.47
2018-04-30T19:27:15.492Z,1.67
2018-04-30T19:29:45.099Z,6.07
2018-04-30T19:32:15.341Z,1.50
2018-04-30T19:34:44.437Z,1.30
2018-04-30T19:37:13.337Z,1.80
2018-04-30T19:39:42.795Z,2.10
2018-04-30T19:42:11.965Z,1.37
2018-04-30T19:44:40.805Z,1.37
2018-04-30T19:47:09.685Z,1.97
2018-04-30T19:49:39.277Z,1.10
2018-04-30T19:52:08.885Z,3.63
2018-04-30T19:54:38.532Z,1.80
2018-04-30T19:57:07.361Z,0.80
2018-04-30T19:59:36.235Z,1.23
2018-04-30T20:02:05.066Z,0.90
2018-04-30T20:04:34.713Z,0.93
2018-04-30T20:07:03.911Z,1.60
2018-04-30T20:09:32.745Z,3.70
2018-04-30T20:12:02.248Z,1.20
2018-04-30T20:14:31.878Z,0.80
2018-04-30T20:17:00.712Z,2.03
2018-04-30T20:19:30.189Z,2.43
2018-04-30T20:21:59.038Z,1.47
2018-04-30T20:24:27.919Z,1.30
2018-04-30T20:26:56.748Z,1.33
2018-04-30T20:29:25.673Z,1.13
2018-04-30T20:31:55.299Z,0.80
2018-04-30T20:34:24.910Z,0.90
2018-04-30T20:36:53.894Z,1.63
2018-04-30T20:39:23.371Z,0.70
2018-04-30T20:41:52.223Z,1.33
2018-04-30T20:44:21.124Z,0.80
2018-04-30T20:46:50.787Z,1.67
2018-04-30T20:49:20.276Z,0.80
2018-04-30T20:51:49.899Z,1.10
2018-04-30T20:54:19.479Z,0.80
2018-04-30T20:56:49.790Z,1.00
2018-04-30T20:59:19.246Z,3.00
2018-04-30T21:01:48.086Z,0.93
2018-04-30T21:04:16.952Z,2.87
2018-04-30T21:06:46.028Z,1.13
2018-04-30T21:09:14.878Z,2.20
2018-04-30T21:11:44.706Z,4.00
2018-04-30T21:14:14.335Z,3.53
2018-04-30T21:16:43.210Z,2.30
2018-04-30T21:19:12.056Z,1.93
2018-04-30T21:21:40.915Z,1.80
2018-04-30T21:24:10.434Z,2.40
2018-04-30T21:26:39.252Z,1.37
2018-04-30T21:29:09.206Z,0.90
2018-04-30T21:31:38.821Z,1.63
2018-04-30T21:34:08.456Z,2.23
2018-04-30T21:36:37.284Z,4.43
2018-04-30T21:39:06.144Z,1.33
2018-04-30T21:41:34.962Z,3.07
2018-04-30T21:44:03.800Z,1.27
2018-04-30T21:46:33.249Z,1.23
2018-04-30T21:49:02.104Z,1.83
2018-04-30T21:51:31.678Z,1.13
2018-04-30T21:54:01.307Z,2.33
2018-04-30T21:56:30.877Z,1.73
2018-04-30T21:59:00.388Z,3.33
2018-04-30T22:01:30.038Z,2.83
2018-04-30T22:03:58.877Z,2.20
2018-04-30T22:06:28.615Z,1.10
2018-04-30T22:08:58.208Z,3.03
2018-04-30T22:11:27.836Z,3.93
2018-04-30T22:13:56.670Z,0.93
2018-04-30T22:16:25.518Z,6.07
2018-04-30T22:18:54.369Z,3.47
2018-04-30T22:21:24.006Z,2.43
2018-04-30T22:23:52.842Z,2.33
2018-04-30T22:26:21.680Z,1.10
2018-04-30T22:28:51.290Z,0.97
2018-04-30T22:31:20.129Z,2.53
2018-04-30T22:33:50.486Z,1.97
2018-04-30T22:36:20.102Z,3.47
2018-04-30T22:38:49.236Z,1.17
2018-04-30T22:41:18.093Z,1.47
2018-04-30T22:43:46.957Z,2.07
2018-04-30T22:46:16.576Z,8.97
2018-04-30T22:48:46.205Z,1.10
2018-04-30T22:51:15.034Z,1.10
2018-04-30T22:53:44.514Z,1.00
2018-04-30T22:56:13.381Z,1.53
2018-04-30T22:58:42.225Z,0.80
2018-04-30T23:01:12.568Z,1.20
2018-04-30T23:03:42.191Z,2.33
2018-04-30T23:06:11.026Z,1.60
2018-04-30T23:08:39.874Z,1.73
2018-04-30T23:11:08.724Z,2.50
2018-04-30T23:13:37.569Z,1.20
2018-04-30T23:16:06.766Z,1.73
2018-04-30T23:18:35.602Z,1.73
2018-04-30T23:21:04.456Z,1.67
2018-04-30T23:23:33.290Z,2.40
2018-04-30T23:26:02.130Z,3.47
2018-04-30T23:28:31.212Z,2.17
2018-04-30T23:31:00.071Z,1.20
2018-04-30T23:33:29.786Z,3.47
2018-04-30T23:35:59.718Z,1.87
2018-04-30T23:38:29.359Z,1.57
2018-04-30T23:40:58.196Z,3.93
2018-04-30T23:43:27.832Z,4.60
2018-04-30T23:45:56.667Z,4.23
2018-04-30T23:48:25.488Z,12.53
2018-04-30T23:50:55.102Z,11.83
2018-04-30T23:53:24.712Z,5.03
2018-04-30T23:55:54.341Z,6.27
2018-04-30T23:58:23.934Z,2.53
